Date,TemperatureHighF,TemperatureAvgF,TemperatureLowF,DewpointHighF,DewpointAvgF,DewpointLowF,HumidityHigh,HumidityAvg,HumidityLow,PressureMaxIn,PressureMinIn,WindSpeedMaxMPH,WindSpeedAvgMPH,GustSpeedMaxMPH,PrecipitationSumIn
2012-1-22,71,69,67,69,67,66,98,96,92,29.93,29.90,7,1,11,0.00
2012-1-23,73,65,52,70,64,51,99,97,86,30.01,29.90,7,1,10,0.20
2012-1-24,67,57,48,55,48,43,98,74,52,30.12,30.01,5,0,5,0.00
2012-3-25,73,62,57,57,56,55,94,82,56,29.93,29.87,0,0,0,0.04
2012-3-26,85,70,55,65,59,54,97,74,40,30.01,29.92,3,0,4,0.00
2012-3-27,84,66,53,67,59,52,100,81,40,30.09,29.97,4,0,7,0.00
2012-3-28,82,68,57,68,62,56,99,82,48,30.11,29.99,6,0,6,0.02
2012-3-29,80,69,62,70,65,61,99,88,58,29.99,29.88,5,0,5,0.00
2012-3-30,80,67,62,71,65,61,99,93,70,29.91,29.84,3,0,4,0.00
2012-4-8,81,69,56,64,58,55,96,69,43,30.18,30.07,4,0,4,0.02
2012-4-9,82,66,54,64,58,53,98,78,44,30.10,29.99,3,0,4,0.00
2012-4-10,82,65,51,62,57,50,99,79,41,30.07,29.97,2,0,4,0.00
2012-4-11,82,66,55,67,59,52,99,79,50,30.06,29.98,3,0,5,0.00
2012-4-12,59,56,54,52,49,47,78,77,75,30.06,30.04,1,0,3,0.00
2012-4-15,79,74,72,71,70,69,92,87,75,30.01,29.98,3,0,5,0.00
2012-4-16,82,74,65,72,69,64,97,86,69,30.10,29.96,6,0,9,0.00
2012-4-17,77,66,60,70,64,58,99,92,74,30.07,29.97,5,0,5,0.00
2012-4-18,76,62,55,65,58,54,97,88,63,30.01,29.91,5,0,7,0.01
2012-4-19,82,64,51,65,58,51,99,81,45,29.95,29.83,4,0,4,0.00
2012-4-20,80,65,53,66,59,52,99,82,52,29.86,29.72,3,0,4,0.00
2012-4-21,72,62,55,65,58,52,99,89,72,29.77,29.65,7,0,7,0.00
2012-4-22,78,62,48,55,48,43,91,66,38,29.89,29.74,9,1,10,0.00
2012-4-23,71,57,42,47,42,34,84,59,31,30.01,29.89,9,0,11,0.00
2012-4-24,74,56,36,52,44,35,98,68,32,30.05,29.93,5,0,5,0.00
2012-4-25,78,65,50,64,58,48,99,79,50,30.00,29.93,5,1,7,0.01
2012-4-26,80,71,61,70,65,60,99,83,64,30.02,29.93,5,1,6,0.00
2012-4-27,80,69,58,68,63,58,99,84,61,30.04,29.95,5,0,5,0.00
2012-4-28,83,70,60,69,64,60,99,84,56,30.02,29.94,5,0,5,0.00
2012-4-29,85,70,57,72,65,56,99,86,60,30.07,29.99,3,0,4,0.00
2012-4-30,88,71,59,73,65,58,99,83,50,30.09,29.99,3,0,3,0.00
2012-5-1,87,73,60,73,66,60,99,82,50,30.03,29.92,4,0,6,0.00
2012-5-2,73,68,65,73,68,64,99,98,93,29.99,29.88,5,0,6,3.48
2012-5-3,85,74,68,76,71,67,99,90,67,29.98,29.90,4,0,4,0.03
2012-5-4,88,74,67,77,71,66,99,89,64,30.01,29.92,4,0,5,0.00
2012-5-5,87,74,64,77,70,64,99,89,63,29.96,29.87,3,0,4,0.02
2012-5-6,87,73,63,77,69,63,100,89,63,29.92,29.83,4,0,4,0.13
2012-5-7,86,71,61,76,68,61,99,92,64,29.89,29.79,2,0,3,1.10
2012-5-8,88,73,61,75,68,61,99,85,53,29.87,29.78,4,0,4,0.00
2012-5-9,81,71,60,73,67,58,99,87,66,29.87,29.78,4,0,6,0.00
2012-5-10,60,57,55,59,56,54,98,96,95,29.86,29.85,0,0,0,0.00
2012-5-12,83,73,66,75,69,65,98,89,72,30.01,29.96,5,0,6,0.08
2012-5-13,83,69,60,73,65,60,100,89,61,30.01,29.90,4,0,4,0.01
2012-5-14,84,70,58,69,64,57,99,84,56,29.98,29.87,3,0,3,0.00
2012-5-15,86,72,60,70,65,59,99,82,48,29.95,29.88,4,0,4,0.00
2012-5-16,87,72,61,69,64,57,98,77,37,29.96,29.85,4,0,5,0.00
2012-5-17,87,70,57,68,62,56,99,79,40,29.93,29.85,3,0,5,0.00
2012-5-18,89,72,57,70,62,56,99,76,34,29.93,29.87,3,0,3,0.00
2012-5-19,89,73,62,72,66,62,98,82,41,30.00,29.90,3,0,4,0.00
2012-5-20,90,73,61,67,62,56,99,75,38,30.03,29.95,5,0,5,0.00
2012-5-21,91,73,57,70,63,57,99,76,40,30.01,29.89,3,0,4,0.60
2012-5-22,88,73,62,74,66,60,99,82,46,29.93,29.79,3,0,5,0.00
2012-5-23,90,74,59,74,67,58,98,81,54,29.84,29.74,2,0,3,0.00
2012-5-24,87,75,66,74,69,65,99,83,56,29.88,29.76,4,0,6,0.02
2012-5-25,90,75,63,76,68,63,99,81,47,30.01,29.86,3,0,4,0.00
2012-5-26,94,76,60,77,68,60,99,80,44,30.06,29.96,3,0,3,0.00
2012-5-27,96,80,67,76,71,66,98,77,42,29.96,29.85,2,0,3,0.00
2012-5-28,95,80,68,79,72,67,98,79,42,29.87,29.78,2,0,3,0.00
2012-5-29,95,80,68,78,71,67,99,78,50,29.85,29.76,3,0,3,0.00
2012-5-30,92,79,67,77,71,65,98,78,48,29.84,29.74,5,0,5,0.04
2012-5-31,88,72,64,78,68,63,98,88,61,29.82,29.72,6,0,6,0.16
2012-6-1,75,67,65,73,66,64,99,98,94,29.83,29.74,1,0,2,0.49
2012-6-10,73,72,70,73,71,70,100,99,98,29.92,29.85,4,0,4,2.84
2012-6-11,75,73,72,74,72,72,99,99,99,29.92,29.90,2,0,2,0.00
2012-7-10,74,72,70,73,71,69,99,98,97,29.94,29.90,0,0,0,0.00
2012-7-11,71,71,71,71,71,70,99,99,99,29.94,29.92,0,0,0,0.00
2012-7-14,82,77,73,78,75,72,99,95,87,30.00,29.93,1,0,3,0.06
2012-7-15,88,79,73,80,75,72,99,90,69,30.04,29.94,3,0,5,1.01
2012-7-16,91,79,70,80,75,70,99,87,61,30.04,29.92,3,0,4,0.00
2012-7-17,96,80,70,81,74,69,99,84,51,30.03,29.87,4,0,6,2.44
2012-7-18,92,76,70,82,73,68,99,92,67,30.03,29.90,3,0,3,2.39
2012-7-28,93,83,74,82,78,74,98,85,65,30.04,29.95,2,0,3,0.01
2012-7-29,93,81,71,82,76,71,100,87,63,30.00,29.90,3,0,4,0.00
2012-7-30,97,82,74,83,77,72,99,86,57,29.98,29.87,4,0,4,0.00
2012-7-31,89,81,76,81,78,75,99,92,77,29.98,29.87,5,0,5,0.00
2012-8-1,94,81,74,84,77,70,99,88,65,29.94,29.82,4,0,5,0.00
2012-8-2,91,81,73,83,77,72,99,89,70,29.92,29.82,2,0,2,0.00
2012-8-3,94,80,72,81,75,72,99,87,56,29.93,29.83,3,0,4,0.01
2012-8-4,93,80,73,80,76,72,99,88,59,30.01,29.88,2,0,4,0.09
2012-8-5,93,80,71,80,75,71,99,87,58,30.07,29.97,3,0,4,0.00
2012-8-6,93,77,71,81,74,71,99,92,58,30.01,29.90,2,0,3,2.06
2012-8-7,94,79,70,81,75,69,100,89,58,29.94,29.86,1,0,2,0.00
2012-8-8,91,78,71,81,75,69,100,92,67,29.98,29.89,3,0,3,0.94
2012-8-9,82,74,67,79,73,67,99,96,85,29.94,29.84,9,0,9,0.62
2012-8-10,89,76,67,83,74,67,100,96,76,29.89,29.79,4,0,5,0.48
2012-8-11,88,77,72,80,75,72,99,93,75,29.93,29.81,2,0,3,0.00
2012-8-12,91,78,68,78,73,68,100,86,55,29.98,29.91,0,0,1,0.00
2012-8-13,92,78,69,81,75,69,100,90,65,29.99,29.89,3,0,3,0.00
2012-8-14,94,80,72,82,76,71,99,89,63,29.95,29.85,3,0,4,0.00
2012-8-15,95,79,71,82,75,69,99,88,59,29.96,29.85,3,0,5,1.35
2012-8-16,72,71,71,71,71,70,99,99,99,29.95,29.93,0,0,0,0.00
2012-8-21,86,78,70,76,72,68,96,82,65,29.96,29.91,3,0,4,0.00
2012-8-22,88,76,68,74,69,65,98,83,49,30.01,29.93,3,0,3,0.00
2012-8-23,91,75,64,73,68,63,99,82,48,30.04,29.97,3,0,4,0.00
2012-8-24,88,75,66,77,72,66,100,89,63,30.02,29.93,3,0,4,0.02
2012-8-25,87,76,69,77,72,68,99,90,68,30.00,29.93,2,0,3,0.00
2012-8-26,91,77,68,76,72,67,99,86,57,30.04,29.92,3,0,4,0.00
2012-8-27,90,78,66,72,68,64,98,74,45,29.94,29.71,9,1,11,0.00
2012-8-28,82,76,73,79,74,69,99,92,76,29.71,29.49,10,1,11,1.99
2012-8-29,76,75,75,76,75,74,99,98,97,29.56,29.48,9,3,16,5.25
2012-8-30,79,77,74,79,76,74,99,97,95,29.95,29.80,4,1,6,0.93
2012-8-31,87,79,74,80,77,73,99,92,76,30.08,29.95,5,0,5,0.02
2012-9-1,89,80,73,80,76,73,99,89,66,30.12,30.02,3,0,4,0.00
2012-9-2,93,81,72,81,76,72,100,88,59,30.04,29.92,2,0,3,0.00
2012-9-3,90,81,73,81,77,72,99,88,69,29.99,29.87,3,0,4,0.00
2012-9-4,92,81,74,79,77,73,99,86,64,29.92,29.80,3,0,4,0.51
2012-9-29,72,70,70,71,70,69,99,98,98,29.81,29.77,0,0,0,0.00
2012-9-30,80,74,69,76,72,69,100,97,85,29.77,29.48,6,0,8,6.62
2012-10-1,75,71,67,74,70,63,98,94,86,29.55,29.42,3,0,5,0.00
2012-10-2,77,72,66,65,62,60,86,73,62,29.81,29.80,4,0,5,0.00
2012-10-24,66,62,59,64,61,59,98,96,93,29.94,29.92,0,0,0,0.00
2012-10-25,84,67,54,74,63,54,100,90,65,29.92,29.84,3,0,4,0.00
2012-10-26,83,66,56,68,62,56,100,87,53,29.91,29.80,4,0,6,0.00
2012-10-27,62,52,44,58,48,43,96,88,79,29.92,29.84,7,0,13,0.00
2012-10-28,65,50,39,47,42,38,97,77,44,30.02,29.88,10,0,13,0.00
2012-10-29,63,48,38,42,37,32,90,69,34,30.07,29.92,7,0,9,0.00
2012-10-30,51,35,32,44,33,31,98,93,76,30.01,29.90,0,0,0,0.00
2012-10-31,75,62,56,63,58,55,98,88,64,29.90,29.85,2,0,5,0.00
2012-11-1,80,64,53,60,55,50,99,77,38,30.01,29.89,3,0,3,0.00
2012-11-3,85,72,55,72,66,55,100,83,51,30.06,29.95,4,0,4,0.00
2012-11-4,62,58,56,61,57,56,99,99,97,29.99,29.97,1,0,1,0.06
2012-11-5,72,59,50,61,55,50,99,90,55,30.01,29.82,10,0,10,0.25
2012-11-6,66,56,49,56,52,47,99,87,68,29.96,29.84,7,0,7,0.01
2012-11-12,59,54,48,57,51,43,93,88,82,30.25,30.14,10,0,10,0.85
2012-11-13,61,48,39,43,37,34,86,70,42,30.31,30.17,10,1,10,0.00
2012-11-14,66,49,40,46,40,36,94,74,39,30.24,30.11,5,0,5,0.00
2012-11-15,66,52,38,52,47,37,97,83,57,30.19,30.09,5,0,5,0.00
2012-11-16,66,49,38,53,46,38,99,89,59,30.22,30.12,7,0,7,0.00
2012-11-17,67,50,40,49,44,40,98,82,46,30.28,30.17,3,0,8,0.00
2012-11-18,69,51,38,53,45,37,97,82,48,30.26,30.15,6,0,6,0.00
2012-11-19,74,54,40,57,49,40,99,85,50,30.21,30.08,4,0,4,0.00
2012-11-20,72,54,43,55,48,43,99,84,46,30.13,30.01,5,0,5,0.00
2012-11-21,78,56,42,58,50,41,99,83,45,30.13,30.02,5,0,5,0.00
2012-11-22,77,52,41,58,48,40,99,88,46,30.17,30.09,2,0,2,0.00
2012-11-24,62,48,32,42,38,31,96,70,41,30.22,30.09,6,0,6,0.00
2012-11-25,65,38,28,44,33,27,98,85,45,30.17,30.07,3,0,3,0.00
2012-11-26,72,66,58,65,63,58,99,89,76,30.08,30.00,6,0,6,0.00
2012-11-27,66,60,51,64,59,50,99,97,93,30.21,29.98,9,0,9,0.66
2012-11-28,63,49,35,50,44,35,97,85,48,30.34,30.20,9,0,9,0.00
2012-11-29,68,48,34,53,44,33,98,87,55,30.30,30.17,4,0,4,0.00
2012-11-30,76,56,45,62,52,44,99,88,56,30.21,30.10,2,0,3,0.00
2012-12-1,76,58,45,67,56,45,100,93,68,30.19,30.11,5,0,5,0.00
2012-12-2,79,61,51,67,57,50,100,90,60,30.21,30.11,4,0,5,0.00
2012-12-3,52,51,51,51,51,51,98,98,98,30.13,30.12,0,0,0,0.00
2012-12-12,56,49,39,40,38,34,91,66,44,30.16,30.11,6,0,6,0.00
2012-12-20,71,61,56,70,54,49,98,79,62,29.84,29.77,8,1,8,0.16
2012-12-22,65,39,26,36,30,25,98,76,27,30.36,30.21,3,0,3,0.00
2012-12-25,72,70,69,68,68,67,93,92,88,29.58,29.50,9,3,10,0.24
2012-12-29,53,50,48,42,39,37,77,65,58,30.14,30.09,7,0,7,0.00